sensor_id;sensor_type;location;lat;lon;timestamp;P1;durP1;ratioP1;P2;durP2;ratioP2
14774;SDS011;7479;47.042;15.160;2023-09-18T05:55:45;8.37;;;7.50;;
14774;SDS011;7479;47.042;15.160;2023-09-18T06:11:27;9.70;;;7.37;;
14774;SDS011;7479;47.042;15.160;2023-09-18T06:16:20;14.97;;;7.17;;
14774;SDS011;7479;47.042;15.160;2023-09-18T06:21:14;9.33;;;6.37;;
14774;SDS011;7479;47.042;15.160;2023-09-18T06:26:08;7.70;;;7.00;;
14774;SDS011;7479;47.042;15.160;2023-09-18T06:31:03;12.67;;;7.03;;
14774;SDS011;7479;47.042;15.160;2023-09-18T06:35:57;10.25;;;7.25;;
14774;SDS011;7479;47.042;15.160;2023-09-18T06:40:51;10.57;;;6.75;;
14774;SDS011;7479;47.042;15.160;2023-09-18T06:45:46;8.75;;;6.22;;
14774;SDS011;7479;47.042;15.160;2023-09-18T06:50:42;10.95;;;6.65;;
14774;SDS011;7479;47.042;15.160;2023-09-18T07:04:49;11.07;;;6.40;;
14774;SDS011;7479;47.042;15.160;2023-09-18T07:09:43;8.52;;;5.70;;
14774;SDS011;7479;47.042;15.160;2023-09-18T07:14:39;9.40;;;6.63;;
14774;SDS011;7479;47.042;15.160;2023-09-18T07:19:33;9.30;;;6.30;;
14774;SDS011;7479;47.042;15.160;2023-09-18T07:33:33;12.70;;;6.72;;
14774;SDS011;7479;47.042;15.160;2023-09-18T07:38:27;9.82;;;6.80;;
14774;SDS011;7479;47.042;15.160;2023-09-18T07:43:23;7.90;;;6.30;;
14774;SDS011;7479;47.042;15.160;2023-09-18T07:48:18;8.77;;;7.10;;
14774;SDS011;7479;47.042;15.160;2023-09-18T07:53:14;14.73;;;6.75;;
14774;SDS011;7479;47.042;15.160;2023-09-18T07:58:08;8.80;;;6.57;;
14774;SDS011;7479;47.042;15.160;2023-09-18T08:03:01;8.00;;;7.20;;
14774;SDS011;7479;47.042;15.160;2023-09-18T08:07:56;11.98;;;6.78;;
14774;SDS011;7479;47.042;15.160;2023-09-18T08:12:52;9.70;;;6.55;;
14774;SDS011;7479;47.042;15.160;2023-09-18T08:17:46;6.30;;;5.70;;
14774;SDS011;7479;47.042;15.160;2023-09-18T08:22:41;8.60;;;6.15;;
14774;SDS011;7479;47.042;15.160;2023-09-18T08:27:36;7.43;;;5.82;;
14774;SDS011;7479;47.042;15.160;2023-09-18T08:32:33;6.60;;;6.00;;
14774;SDS011;7479;47.042;15.160;2023-09-18T08:37:27;6.38;;;5.88;;
14774;SDS011;7479;47.042;15.160;2023-09-18T08:42:20;6.45;;;5.82;;
14774;SDS011;7479;47.042;15.160;2023-09-18T08:47:15;7.05;;;5.60;;
14774;SDS011;7479;47.042;15.160;2023-09-18T08:52:12;9.63;;;5.90;;
14774;SDS011;7479;47.042;15.160;2023-09-18T08:57:08;7.05;;;5.53;;
14774;SDS011;7479;47.042;15.160;2023-09-18T09:02:01;6.63;;;5.97;;
14774;SDS011;7479;47.042;15.160;2023-09-18T09:06:55;6.70;;;6.20;;
14774;SDS011;7479;47.042;15.160;2023-09-18T09:11:52;6.10;;;5.60;;
14774;SDS011;7479;47.042;15.160;2023-09-18T09:16:46;6.50;;;5.93;;
14774;SDS011;7479;47.042;15.160;2023-09-18T09:21:41;6.35;;;5.78;;
14774;SDS011;7479;47.042;15.160;2023-09-18T09:26:36;6.50;;;5.90;;
14774;SDS011;7479;47.042;15.160;2023-09-18T09:31:34;6.75;;;6.25;;
14774;SDS011;7479;47.042;15.160;2023-09-18T09:36:30;7.38;;;6.78;;
14774;SDS011;7479;47.042;15.160;2023-09-18T09:41:25;8.27;;;6.00;;
14774;SDS011;7479;47.042;15.160;2023-09-18T09:46:20;8.90;;;7.32;;
14774;SDS011;7479;47.042;15.160;2023-09-18T09:51:19;8.32;;;6.65;;
14774;SDS011;7479;47.042;15.160;2023-09-18T09:56:13;7.85;;;7.13;;
14774;SDS011;7479;47.042;15.160;2023-09-18T10:01:14;7.13;;;6.53;;
14774;SDS011;7479;47.042;15.160;2023-09-18T10:06:09;7.30;;;6.55;;
14774;SDS011;7479;47.042;15.160;2023-09-18T10:11:07;7.10;;;6.47;;
14774;SDS011;7479;47.042;15.160;2023-09-18T10:16:04;7.28;;;6.22;;
14774;SDS011;7479;47.042;15.160;2023-09-18T10:21:03;7.45;;;6.72;;
14774;SDS011;7479;47.042;15.160;2023-09-18T10:26:09;7.80;;;7.00;;
14774;SDS011;7479;47.042;15.160;2023-09-18T10:31:04;8.18;;;6.88;;
14774;SDS011;7479;47.042;15.160;2023-09-18T10:35:59;9.43;;;6.85;;
14774;SDS011;7479;47.042;15.160;2023-09-18T10:40:56;7.85;;;7.15;;
14774;SDS011;7479;47.042;15.160;2023-09-18T10:45:53;7.97;;;7.18;;
14774;SDS011;7479;47.042;15.160;2023-09-18T10:50:47;8.45;;;7.55;;
14774;SDS011;7479;47.042;15.160;2023-09-18T10:55:41;7.88;;;7.07;;
14774;SDS011;7479;47.042;15.160;2023-09-18T11:00:40;6.90;;;6.30;;
14774;SDS011;7479;47.042;15.160;2023-09-18T11:05:36;7.50;;;6.80;;
14774;SDS011;7479;47.042;15.160;2023-09-18T11:10:31;8.00;;;7.20;;
14774;SDS011;7479;47.042;15.160;2023-09-18T11:15:25;6.82;;;6.25;;
14774;SDS011;7479;47.042;15.160;2023-09-18T11:20:24;6.45;;;5.78;;
14774;SDS011;7479;47.042;15.160;2023-09-18T11:25:30;8.30;;;6.85;;
14774;SDS011;7479;47.042;15.160;2023-09-18T11:30:29;7.10;;;6.43;;
14774;SDS011;7479;47.042;15.160;2023-09-18T11:35:23;7.15;;;6.55;;
14774;SDS011;7479;47.042;15.160;2023-09-18T11:40:28;7.82;;;6.68;;
14774;SDS011;7479;47.042;15.160;2023-09-18T11:45:25;6.85;;;6.20;;
14774;SDS011;7479;47.042;15.160;2023-09-18T11:50:19;7.72;;;6.70;;
14774;SDS011;7479;47.042;15.160;2023-09-18T11:55:15;6.65;;;6.15;;
14774;SDS011;7479;47.042;15.160;2023-09-18T12:00:20;6.55;;;6.05;;
14774;SDS011;7479;47.042;15.160;2023-09-18T12:05:17;6.00;;;5.50;;
14774;SDS011;7479;47.042;15.160;2023-09-18T12:10:11;6.68;;;5.88;;
14774;SDS011;7479;47.042;15.160;2023-09-18T12:15:10;6.97;;;6.38;;
14774;SDS011;7479;47.042;15.160;2023-09-18T12:20:09;7.40;;;6.80;;
14774;SDS011;7479;47.042;15.160;2023-09-18T12:25:11;9.93;;;8.18;;
14774;SDS011;7479;47.042;15.160;2023-09-18T12:30:08;10.00;;;9.10;;
14774;SDS011;7479;47.042;15.160;2023-09-18T12:35:06;9.50;;;8.55;;
14774;SDS011;7479;47.042;15.160;2023-09-18T12:40:01;9.55;;;8.75;;
14774;SDS011;7479;47.042;15.160;2023-09-18T12:44:59;9.25;;;8.40;;
14774;SDS011;7479;47.042;15.160;2023-09-18T12:49:58;9.05;;;8.20;;
14774;SDS011;7479;47.042;15.160;2023-09-18T12:54:57;8.63;;;7.80;;
14774;SDS011;7479;47.042;15.160;2023-09-18T12:59:54;8.43;;;7.63;;
14774;SDS011;7479;47.042;15.160;2023-09-18T13:04:51;7.82;;;7.13;;
14774;SDS011;7479;47.042;15.160;2023-09-18T13:10:00;7.28;;;6.30;;
14774;SDS011;7479;47.042;15.160;2023-09-18T13:14:59;7.60;;;6.90;;
14774;SDS011;7479;47.042;15.160;2023-09-18T13:19:56;7.03;;;6.43;;
14774;SDS011;7479;47.042;15.160;2023-09-18T13:24:54;9.55;;;7.07;;
14774;SDS011;7479;47.042;15.160;2023-09-18T13:29:51;7.88;;;6.50;;
14774;SDS011;7479;47.042;15.160;2023-09-18T13:34:45;7.90;;;7.10;;
14774;SDS011;7479;47.042;15.160;2023-09-18T13:39:41;7.50;;;6.80;;
14774;SDS011;7479;47.042;15.160;2023-09-18T13:44:35;7.97;;;7.22;;
14774;SDS011;7479;47.042;15.160;2023-09-18T13:49:31;7.40;;;6.38;;
14774;SDS011;7479;47.042;15.160;2023-09-18T13:54:24;8.55;;;7.55;;
14774;SDS011;7479;47.042;15.160;2023-09-18T13:59:18;8.07;;;7.28;;
14774;SDS011;7479;47.042;15.160;2023-09-18T14:04:12;6.90;;;6.30;;
14774;SDS011;7479;47.042;15.160;2023-09-18T14:09:09;7.63;;;6.75;;
14774;SDS011;7479;47.042;15.160;2023-09-18T14:14:03;7.22;;;6.50;;
14774;SDS011;7479;47.042;15.160;2023-09-18T14:18:57;7.65;;;6.88;;
14774;SDS011;7479;47.042;15.160;2023-09-18T14:23:51;8.18;;;6.80;;
14774;SDS011;7479;47.042;15.160;2023-09-18T14:28:47;8.68;;;7.32;;
14774;SDS011;7479;47.042;15.160;2023-09-18T14:33:41;7.50;;;6.05;;
14774;SDS011;7479;47.042;15.160;2023-09-18T14:38:35;8.90;;;6.47;;
14774;SDS011;7479;47.042;15.160;2023-09-18T14:43:31;10.32;;;6.70;;
14774;SDS011;7479;47.042;15.160;2023-09-18T14:48:28;9.45;;;6.45;;
14774;SDS011;7479;47.042;15.160;2023-09-18T14:53:24;8.88;;;7.88;;
14774;SDS011;7479;47.042;15.160;2023-09-18T14:58:18;9.02;;;7.28;;
14774;SDS011;7479;47.042;15.160;2023-09-18T15:03:14;8.80;;;6.70;;
14774;SDS011;7479;47.042;15.160;2023-09-18T15:08:09;9.35;;;6.90;;
14774;SDS011;7479;47.042;15.160;2023-09-18T15:13:03;10.23;;;7.10;;
14774;SDS011;7479;47.042;15.160;2023-09-18T15:17:57;10.07;;;7.32;;
14774;SDS011;7479;47.042;15.160;2023-09-18T15:22:51;13.25;;;7.90;;
14774;SDS011;7479;47.042;15.160;2023-09-18T15:27:49;10.55;;;7.40;;
14774;SDS011;7479;47.042;15.160;2023-09-18T15:32:46;9.40;;;6.93;;
14774;SDS011;7479;47.042;15.160;2023-09-18T15:37:42;10.52;;;7.15;;
14774;SDS011;7479;47.042;15.160;2023-09-18T15:42:36;13.68;;;7.80;;
14774;SDS011;7479;47.042;15.160;2023-09-18T15:47:32;11.43;;;7.28;;
14774;SDS011;7479;47.042;15.160;2023-09-18T15:52:27;7.70;;;6.45;;
14774;SDS011;7479;47.042;15.160;2023-09-18T15:57:21;8.65;;;7.25;;
14774;SDS011;7479;47.042;15.160;2023-09-18T16:02:17;8.43;;;7.40;;
14774;SDS011;7479;47.042;15.160;2023-09-18T16:07:14;8.85;;;7.05;;
14774;SDS011;7479;47.042;15.160;2023-09-18T16:12:09;9.48;;;7.13;;
14774;SDS011;7479;47.042;15.160;2023-09-18T16:17:04;12.38;;;7.40;;
14774;SDS011;7479;47.042;15.160;2023-09-18T16:22:00;9.05;;;7.85;;
14774;SDS011;7479;47.042;15.160;2023-09-18T16:26:56;13.60;;;7.07;;
14774;SDS011;7479;47.042;15.160;2023-09-18T16:31:50;11.20;;;7.63;;
14774;SDS011;7479;47.042;15.160;2023-09-18T16:36:44;10.82;;;7.85;;
14774;SDS011;7479;47.042;15.160;2023-09-18T16:41:38;8.50;;;7.50;;
14774;SDS011;7479;47.042;15.160;2023-09-18T16:46:38;9.73;;;7.93;;
14774;SDS011;7479;47.042;15.160;2023-09-18T16:51:32;9.52;;;7.22;;
14774;SDS011;7479;47.042;15.160;2023-09-18T16:56:26;9.45;;;7.97;;
14774;SDS011;7479;47.042;15.160;2023-09-18T17:01:21;12.70;;;8.13;;
14774;SDS011;7479;47.042;15.160;2023-09-18T17:06:17;12.80;;;8.30;;
14774;SDS011;7479;47.042;15.160;2023-09-18T17:11:12;9.13;;;8.13;;
14774;SDS011;7479;47.042;15.160;2023-09-18T17:16:07;9.50;;;8.15;;
14774;SDS011;7479;47.042;15.160;2023-09-18T17:21:02;12.73;;;8.40;;
14774;SDS011;7479;47.042;15.160;2023-09-18T17:26:00;10.77;;;8.55;;
14774;SDS011;7479;47.042;15.160;2023-09-18T17:30:57;10.18;;;8.63;;
14774;SDS011;7479;47.042;15.160;2023-09-18T17:35:51;14.63;;;11.40;;
14774;SDS011;7479;47.042;15.160;2023-09-18T17:40:45;33.95;;;28.42;;
14774;SDS011;7479;47.042;15.160;2023-09-18T17:45:40;18.70;;;16.02;;
14774;SDS011;7479;47.042;15.160;2023-09-18T17:50:34;24.83;;;18.70;;
14774;SDS011;7479;47.042;15.160;2023-09-18T17:55:28;11.60;;;10.40;;
14774;SDS011;7479;47.042;15.160;2023-09-18T18:00:22;15.38;;;11.25;;
14774;SDS011;7479;47.042;15.160;2023-09-18T18:05:17;13.73;;;10.93;;
14774;SDS011;7479;47.042;15.160;2023-09-18T18:10:18;12.63;;;9.73;;
14774;SDS011;7479;47.042;15.160;2023-09-18T18:15:11;14.38;;;9.35;;
14774;SDS011;7479;47.042;15.160;2023-09-18T18:20:07;10.85;;;9.73;;
14774;SDS011;7479;47.042;15.160;2023-09-18T18:25:02;12.77;;;10.20;;
14774;SDS011;7479;47.042;15.160;2023-09-18T18:29:56;13.55;;;9.95;;
